Idaho Falls, ID

12:19 PM MDT on September 22, 2014 (GMT -0600)
Idaho Falls High School | Change Station
CLOSE
Current Station
Personal Weather Station
Location: Idaho Falls, ID
Elevation: 4715 ft
Nearby Weather Stations

Elev 4715 ft 43.49 °N, 112.02 °W | Updated 7 seconds ago

Overcast
Overcast
67.6 °F
Feels Like 67.6 °F
N
9.2
Wind Variable Wind from South
Gusts 9.2 mph

Today
High -- | Low -- °F
--% Chance of Precip.
Yesterday
High -- | Low -- °F
Precip. -- in
7:14 AM 7:24 PM
Waning Crescent, 2% visible
Pressure 30.07 in
Visibility 10.0 miles
Clouds Mostly Cloudy 7000 ft
Dew Point 56 °F
Humidity 66%
Rainfall 0.08 in
Snow Depth 0 in , 0 in , 0 in
UV 3 out of 12
Pollen 5.30 out of 12
PM2.5 Good
Flu Activity Not available.
METAR KIDA 221753Z 21008KT 10SM BKN070TCU 19/13 A3016 RMK AO2 SLP181 60001 T01890128 10189 20117 50001

More Conditions Fewer Conditions

Pressure 30.07 in
Visibility 10.0 miles
Clouds Mostly Cloudy 7000 ft
Dew Point 56 °F
Humidity 66%
Rainfall 0.08 in
Snow Depth 0 in , 0 in , 0 in
UV 3 out of 12
Pollen 5.30 out of 12
PM2.5 Good
Flu Activity Not available.
METAR KIDA 221753Z 21008KT 10SM BKN070TCU 19/13 A3016 RMK AO2 SLP181 60001 T01890128 10189 20117 50001

More Conditions Fewer Conditions

10-Day Weather Forecast

Almanac

Astronomy

Sep. 22, 2014 Rise Set
Actual Time 7:14 AM MDT 7:24 PM MDT
Civil Twilight 6:45 AM MDT 7:52 PM MDT
Nautical Twilight 6:12 AM MDT 8:26 PM MDT
Astronomical Twilight 5:38 AM MDT 9:00 PM MDT
Moon 5:44 AM MDT 6:35 PM MDT
Length of Visible Light 13h 07m
Length of Day
12h 09m
Tomorrow will be 2m 58s shorter.
Waning Crescent, 2% of the Moon is Illuminated
Today
Waning Crescent
Sep 24
New
Oct 1
First Quarter
Oct 8
Full
Oct 15
Last Quarter

Today's Extremes

State Highs State Lows

Community

WunderPhotos

Upload Photos

1,755,498 photos uploaded!

WunderBlogs® & News

By Dr. Jeff Masters
Director of Meteorology, Weather Underground
By Kari Strenfel
Meteorologist, Weather Underground
By Christopher C. Burt
Weather Historian, Weather Underground
September 22, 2014
September 22, 2014
September 22, 2014

Nearby

Air Quality

  Air Quality AQ Index Pollutant
Yesterday Good
PM2.5
Current Good
PM2.5
Monday Good
PM2.5

Snow Depth

Station Depth Elevation
Moscow Mountain 0 in 4700 ft
Crater Meadows 0 in 5960 ft
Wildhorse Divide 0 in 6490 ft
Mud Flat 1 in 5730 ft
Morgan Creek 0 in 7600 ft

Earthquake Activity

City Distance Mag. Time & Date
No recent earthquake activity has been reported nearby.
Minimum magnitude displayed is 2.5.

Coastal Water Temperatures

Place Temperature
No Stations Reporting

Nearby Weather Stations